Time;durP1;ratioP1;P1;durP2;ratioP2;P2;SDS_P1;SDS_P2;PMS_P1;PMS_P2;Temp;Humidity;BMP_temperature;BMP_pressure;BME280_temperature;BME280_humidity;BME280_pressure;Samples;Min_cycle;Max_cycle;Signal;HPM_P1;HPM_P2
2024/01/06 00:01:25;;;;;;;9.65;6.18;;;5.10;99.90;;;;;;5078676;28;20028;-93
2024/01/06 00:03:50;;;;;;;8.23;5.82;;;5.10;99.90;;;;;;5060761;28;20016;-93
2024/01/06 00:06:16;;;;;;;11.82;7.15;;;5.10;99.90;;;;;;5077801;28;20483;-90
2024/01/06 00:08:42;;;;;;;9.70;6.18;;;5.10;99.90;;;;;;5079521;28;20020;-92
2024/01/06 00:11:07;;;;;;;10.52;7.07;;;5.00;99.90;;;;;;5078947;28;20082;-92
2024/01/06 00:13:33;;;;;;;9.52;5.63;;;5.10;99.90;;;;;;5078381;28;20078;-92
2024/01/06 00:16:00;;;;;;;7.63;5.35;;;5.00;99.90;;;;;;5077965;28;20029;-91
2024/01/06 00:18:27;;;;;;;;;;;5.00;99.90;;;;;;5079600;28;20048;-91
2024/01/06 00:20:52;;;;;;;9.07;5.40;;;5.00;99.90;;;;;;5078900;28;19978;-90
2024/01/06 00:23:18;;;;;;;10.10;5.80;;;5.00;99.90;;;;;;5078493;28;20583;-90
2024/01/06 00:25:44;;;;;;;10.45;4.88;;;4.90;99.90;;;;;;5078830;28;20062;-91
2024/01/06 00:28:09;;;;;;;7.25;5.05;;;4.90;99.90;;;;;;5080098;28;20028;-91
2024/01/06 00:30:35;;;;;;;9.65;5.05;;;4.90;99.90;;;;;;5078583;28;20534;-92
2024/01/06 00:33:01;;;;;;;7.32;5.55;;;4.90;99.90;;;;;;5078887;28;20493;-92
2024/01/06 00:35:26;;;;;;;10.30;6.18;;;4.90;99.90;;;;;;5078209;28;20028;-92
2024/01/06 00:37:52;;;;;;;8.23;6.72;;;4.90;99.90;;;;;;5078363;28;20467;-90
2024/01/06 00:40:19;;;;;;;6.95;5.43;;;4.90;99.90;;;;;;5077755;28;20020;-89
2024/01/06 00:42:45;;;;;;;7.40;5.15;;;4.90;99.90;;;;;;5079276;28;20016;-91
2024/01/06 00:45:10;;;;;;;9.32;5.43;;;4.90;99.90;;;;;;5078900;28;20418;-91
2024/01/06 00:47:36;;;;;;;8.40;4.78;;;4.90;99.90;;;;;;5078211;28;20033;-94
2024/01/06 00:50:01;;;;;;;6.53;4.47;;;4.90;99.90;;;;;;5076283;28;20025;-92
2024/01/06 00:52:27;;;;;;;10.43;4.65;;;4.80;99.90;;;;;;5076597;28;20544;-93
2024/01/06 00:54:53;;;;;;;9.60;5.15;;;4.80;99.90;;;;;;5077545;28;20487;-92
2024/01/06 00:57:23;;;;;;;7.30;4.88;;;4.80;99.90;;;;;;5089172;28;20084;-94
2024/01/06 00:59:49;;;;;;;8.45;4.82;;;4.80;99.90;;;;;;5075721;28;20028;-94
2024/01/06 01:02:15;;;;;;;8.65;5.10;;;4.80;99.90;;;;;;5093982;28;20025;-94
2024/01/06 01:04:40;;;;;;;9.95;4.40;;;4.80;99.90;;;;;;5094862;28;20115;-94
2024/01/06 01:07:06;;;;;;;8.48;4.38;;;4.80;99.90;;;;;;5092723;28;20020;-91
2024/01/06 01:09:31;;;;;;;10.05;5.30;;;4.80;99.90;;;;;;5077082;28;20028;-90
2024/01/06 01:11:57;;;;;;;11.77;5.20;;;4.80;99.90;;;;;;5078272;28;20603;-92
2024/01/06 01:14:23;;;;;;;10.25;4.72;;;4.80;99.90;;;;;;5074675;28;20086;-92
2024/01/06 01:16:48;;;;;;;7.28;4.95;;;4.70;99.90;;;;;;5076092;28;20048;-93
2024/01/06 01:19:14;;;;;;;8.50;4.90;;;4.70;99.90;;;;;;5077861;28;20078;-92
2024/01/06 01:21:40;;;;;;;7.80;4.70;;;4.70;99.90;;;;;;5078543;28;20021;-92
2024/01/06 01:24:05;;;;;;;6.22;3.63;;;4.70;99.90;;;;;;5060954;28;20434;-89
2024/01/06 01:26:31;;;;;;;5.82;4.22;;;4.70;99.90;;;;;;5060016;28;20521;-91
2024/01/06 01:28:56;;;;;;;12.55;4.32;;;4.70;99.90;;;;;;5077684;28;20429;-91
2024/01/06 01:31:22;;;;;;;5.10;3.13;;;4.70;99.90;;;;;;5077319;28;20031;-91
2024/01/06 01:33:48;;;;;;;5.90;4.97;;;4.70;99.90;;;;;;5077493;28;20109;-91
2024/01/06 01:36:13;;;;;;;7.57;3.92;;;4.70;99.90;;;;;;5077585;28;20483;-89
2024/01/06 01:38:39;;;;;;;8.93;5.53;;;4.80;99.90;;;;;;5077989;28;20047;-91
2024/01/06 01:41:04;;;;;;;7.88;4.07;;;4.80;99.90;;;;;;5069163;28;20020;-90
2024/01/06 01:43:31;;;;;;;7.78;4.55;;;4.80;99.90;;;;;;5057619;28;20095;-91
2024/01/06 01:45:57;;;;;;;10.10;4.68;;;4.80;99.90;;;;;;5070333;28;20031;-92
2024/01/06 01:48:26;;;;;;;8.50;3.67;;;4.80;99.90;;;;;;5076610;28;20593;-90
2024/01/06 01:50:53;;;;;;;10.57;4.82;;;4.70;99.90;;;;;;5077127;28;20028;-92
2024/01/06 01:53:20;;;;;;;8.35;4.72;;;4.60;99.90;;;;;;5076612;28;20285;-92
2024/01/06 01:55:48;;;;;;;11.48;4.85;;;4.70;99.90;;;;;;5077239;28;20335;-90
2024/01/06 01:58:15;;;;;;;8.02;4.88;;;4.60;99.90;;;;;;5077096;28;20017;-91
2024/01/06 02:00:41;;;;;;;7.82;4.13;;;4.60;99.90;;;;;;5070518;28;20028;-91
2024/01/06 02:03:09;;;;;;;7.63;3.88;;;4.60;99.90;;;;;;5072012;28;20549;-92
2024/01/06 02:05:35;;;;;;;11.52;4.35;;;4.60;99.90;;;;;;5075620;28;20029;-90
2024/01/06 02:08:00;;;;;;;9.85;4.47;;;4.60;99.90;;;;;;5077869;28;20055;-91
2024/01/06 02:10:26;;;;;;;7.50;3.83;;;4.60;99.90;;;;;;5077928;28;20031;-91
2024/01/06 02:12:52;;;;;;;8.50;3.50;;;4.60;99.90;;;;;;5059172;28;20070;-90
2024/01/06 02:15:18;;;;;;;4.53;3.47;;;4.60;99.90;;;;;;5077479;28;20099;-92
2024/01/06 02:17:44;;;;;;;7.93;3.53;;;4.50;99.90;;;;;;5078072;28;20494;-90
2024/01/06 02:20:11;;;;;;;5.07;3.50;;;4.60;99.90;;;;;;5077442;28;20071;-91
2024/01/06 02:22:37;;;;;;;7.63;3.47;;;4.60;99.90;;;;;;5076919;28;20078;-91
2024/01/06 02:25:11;;;;;;;6.28;3.35;;;4.60;99.90;;;;;;5073640;28;20427;-90
2024/01/06 02:27:38;;;;;;;7.57;3.85;;;4.60;99.90;;;;;;5079202;28;20036;-91
2024/01/06 02:30:04;;;;;;;10.07;3.47;;;4.60;99.90;;;;;;5080680;28;20047;-93
2024/01/06 02:32:30;;;;;;;4.50;3.40;;;4.60;99.90;;;;;;5080926;28;20016;-92
2024/01/06 02:34:55;;;;;;;7.10;4.55;;;4.60;99.90;;;;;;5080640;28;20032;-91
2024/01/06 02:37:21;;;;;;;11.30;3.67;;;4.60;99.90;;;;;;5081149;28;20103;-92
2024/01/06 02:39:46;;;;;;;6.57;4.05;;;4.60;99.90;;;;;;5079983;28;20475;-91
2024/01/06 02:42:12;;;;;;;11.10;3.85;;;4.60;99.90;;;;;;5079769;28;20029;-92
2024/01/06 02:44:38;;;;;;;6.90;3.92;;;4.60;99.90;;;;;;5080069;28;20051;-91
2024/01/06 02:47:03;;;;;;;6.00;3.20;;;4.60;99.90;;;;;;5078868;28;20097;-92
2024/01/06 02:49:29;;;;;;;5.80;3.10;;;4.60;99.90;;;;;;5070867;28;20047;-90
2024/01/06 02:51:55;;;;;;;10.00;4.28;;;4.60;99.90;;;;;;5079337;28;20032;-91
2024/01/06 02:54:20;;;;;;;5.22;3.83;;;4.50;99.90;;;;;;5079069;28;20028;-90
2024/01/06 02:56:46;;;;;;;6.32;3.63;;;4.50;99.90;;;;;;5079205;28;20021;-93
2024/01/06 02:59:11;;;;;;;5.93;3.47;;;4.50;99.90;;;;;;5061766;28;20461;-89
2024/01/06 03:01:37;;;;;;;6.25;3.30;;;4.40;99.90;;;;;;5075208;28;20116;-90
2024/01/06 03:04:02;;;;;;;7.55;4.05;;;4.40;99.90;;;;;;5080295;28;20239;-93
2024/01/06 03:06:28;;;;;;;9.05;3.63;;;4.40;99.90;;;;;;5080413;28;20088;-91
2024/01/06 03:08:54;;;;;;;7.75;3.78;;;4.30;99.90;;;;;;5079594;28;20267;-92
2024/01/06 03:11:19;;;;;;;8.88;3.50;;;4.30;99.90;;;;;;5080968;28;20048;-91
2024/01/06 03:13:45;;;;;;;6.70;4.20;;;4.30;99.90;;;;;;5080524;28;20052;-91
2024/01/06 03:16:12;;;;;;;8.32;4.18;;;4.30;99.90;;;;;;5081780;28;20024;-91
2024/01/06 03:18:37;;;;;;;7.63;3.22;;;4.30;99.90;;;;;;5084085;28;20104;-92
2024/01/06 03:21:03;;;;;;;6.18;3.92;;;4.20;99.90;;;;;;5082298;28;20047;-93
2024/01/06 03:23:29;;;;;;;10.85;3.33;;;4.30;99.90;;;;;;5081196;28;20070;-89
2024/01/06 03:25:54;;;;;;;5.25;3.00;;;4.30;99.90;;;;;;5081699;28;20024;-90
2024/01/06 03:28:20;;;;;;;7.85;3.83;;;4.30;99.90;;;;;;5071877;28;20025;-91
2024/01/06 03:30:46;;;;;;;8.60;3.03;;;4.30;99.90;;;;;;5080280;28;20020;-91
2024/01/06 03:33:12;;;;;;;8.40;3.58;;;4.20;99.90;;;;;;5079158;28;20084;-91
2024/01/06 03:35:37;;;;;;;5.55;4.10;;;4.20;99.90;;;;;;5078896;28;20028;-91
2024/01/06 03:38:03;;;;;;;7.05;4.13;;;4.20;99.90;;;;;;5078136;28;20013;-91
2024/01/06 03:40:29;;;;;;;5.47;3.35;;;4.20;99.90;;;;;;5078596;28;20017;-90
2024/01/06 03:42:54;;;;;;;6.38;3.88;;;4.20;99.90;;;;;;5079737;28;20088;-91
2024/01/06 03:45:20;;;;;;;7.93;3.60;;;4.20;99.90;;;;;;5079633;28;20048;-92
2024/01/06 03:47:46;;;;;;;5.53;3.65;;;4.20;99.90;;;;;;5078251;28;20036;-93
2024/01/06 03:50:12;;;;;;;6.05;3.90;;;4.20;99.90;;;;;;5078569;28;20040;-91
2024/01/06 03:52:38;;;;;;;5.68;3.58;;;4.20;99.90;;;;;;5079013;28;20173;-92
2024/01/06 03:55:05;;;;;;;5.45;3.63;;;4.20;99.90;;;;;;5078746;28;20060;-92
2024/01/06 03:57:30;;;;;;;9.70;4.43;;;4.20;99.90;;;;;;5079088;28;20431;-91
2024/01/06 03:59:57;;;;;;;10.77;3.95;;;4.20;99.90;;;;;;5079200;28;20070;-91
2024/01/06 04:02:22;;;;;;;11.48;3.17;;;4.30;99.90;;;;;;5079136;28;20020;-92
2024/01/06 04:04:48;;;;;;;6.65;3.58;;;4.30;99.90;;;;;;5078463;28;20582;-90
2024/01/06 04:07:14;;;;;;;6.25;3.25;;;4.30;99.90;;;;;;5052777;28;20031;-90
2024/01/06 04:09:42;;;;;;;7.22;3.88;;;4.30;99.90;;;;;;5076756;28;20074;-91
2024/01/06 04:12:08;;;;;;;5.03;3.10;;;4.30;99.90;;;;;;5074521;28;20029;-90
2024/01/06 04:14:33;;;;;;;7.38;4.97;;;4.40;99.90;;;;;;5078500;28;20466;-91
2024/01/06 04:16:59;;;;;;;7.13;4.22;;;4.40;99.90;;;;;;5078214;28;20029;-92
2024/01/06 04:19:25;;;;;;;9.65;3.50;;;4.40;99.90;;;;;;5079274;28;20483;-91
2024/01/06 04:21:50;;;;;;;7.28;3.55;;;4.50;99.90;;;;;;5079078;28;20080;-91
2024/01/06 04:24:16;;;;;;;10.25;4.40;;;4.40;99.90;;;;;;5078545;28;20060;-90
2024/01/06 04:26:44;;;;;;;5.28;3.10;;;4.40;99.90;;;;;;5078872;28;20046;-89
2024/01/06 04:29:10;;;;;;;7.95;3.42;;;4.40;99.90;;;;;;5079042;28;20028;-91
2024/01/06 04:31:36;;;;;;;8.35;3.45;;;4.40;99.90;;;;;;5078218;28;20013;-90
2024/01/06 04:34:03;;;;;;;7.03;3.78;;;4.40;99.90;;;;;;5078549;28;20049;-90
2024/01/06 04:36:28;;;;;;;8.18;3.42;;;4.50;99.90;;;;;;5077271;28;20021;-91
2024/01/06 04:38:54;;;;;;;5.97;3.03;;;4.50;99.90;;;;;;5077504;28;20028;-91
2024/01/06 04:41:20;;;;;;;11.27;4.32;;;4.40;99.90;;;;;;5077251;28;20052;-91
2024/01/06 04:43:46;;;;;;;6.22;3.38;;;4.50;99.90;;;;;;5069505;28;20017;-91
2024/01/06 04:46:12;;;;;;;8.90;4.18;;;4.50;99.90;;;;;;5077086;28;20082;-91
2024/01/06 04:48:43;;;;;;;6.70;4.55;;;4.50;99.90;;;;;;5076746;28;20036;-91
2024/01/06 04:51:10;;;;;;;5.40;3.97;;;4.50;99.90;;;;;;5078240;28;20032;-90
2024/01/06 04:53:38;;;;;;;5.22;3.95;;;4.50;99.90;;;;;;5077437;28;20031;-91
2024/01/06 04:56:04;;;;;;;5.75;4.13;;;4.50;99.90;;;;;;5078794;28;20029;-90
2024/01/06 04:58:30;;;;;;;8.43;3.50;;;4.50;99.90;;;;;;5076267;28;20123;-92
2024/01/06 05:00:56;;;;;;;8.43;4.00;;;4.50;99.90;;;;;;5073055;28;20040;-90
2024/01/06 05:03:21;;;;;;;7.78;4.70;;;4.50;99.90;;;;;;5080740;28;20518;-90
2024/01/06 05:05:47;;;;;;;5.20;3.63;;;4.50;99.90;;;;;;5078510;28;20024;-92
2024/01/06 05:08:13;;;;;;;9.80;3.78;;;4.50;99.90;;;;;;5077856;28;20021;-92
2024/01/06 05:10:38;;;;;;;6.40;4.13;;;4.50;99.90;;;;;;5077807;28;20075;-91
2024/01/06 05:13:04;;;;;;;9.43;3.58;;;4.50;99.90;;;;;;5070288;28;20032;-92
2024/01/06 05:15:29;;;;;;;8.55;3.67;;;4.50;99.90;;;;;;5044209;28;20025;-91
2024/01/06 05:17:55;;;;;;;8.68;4.15;;;4.50;99.90;;;;;;5078584;28;20062;-91
2024/01/06 05:20:21;;;;;;;6.80;4.15;;;4.50;99.90;;;;;;5077806;28;20033;-89
2024/01/06 05:22:46;;;;;;;5.72;3.40;;;4.50;99.90;;;;;;5077642;28;20024;-92
2024/01/06 05:25:12;;;;;;;8.73;4.55;;;4.50;99.90;;;;;;5077407;28;20471;-91
2024/01/06 05:27:37;;;;;;;6.90;3.67;;;4.50;99.90;;;;;;5077504;28;20025;-90
2024/01/06 05:30:03;;;;;;;5.50;3.38;;;4.60;99.90;;;;;;5077064;28;20028;-92
2024/01/06 05:32:29;;;;;;;11.52;5.03;;;4.60;99.90;;;;;;5058727;28;20032;-90
2024/01/06 05:34:55;;;;;;;11.68;3.92;;;4.60;99.90;;;;;;5076957;28;20032;-92
2024/01/06 05:37:21;;;;;;;8.35;4.05;;;4.60;99.90;;;;;;5076075;28;20104;-91
2024/01/06 05:39:47;;;;;;;6.53;4.38;;;4.60;99.90;;;;;;5076081;28;20370;-91
2024/01/06 05:42:14;;;;;;;6.10;3.88;;;4.60;99.90;;;;;;5057388;28;20024;-93
2024/01/06 05:44:40;;;;;;;6.47;3.08;;;4.60;99.90;;;;;;5071072;28;20058;-92
2024/01/06 05:47:06;;;;;;;6.53;3.15;;;4.60;99.90;;;;;;5075105;28;20086;-91
2024/01/06 05:49:32;;;;;;;9.55;4.55;;;4.60;99.90;;;;;;5073442;28;20037;-91
2024/01/06 05:51:58;;;;;;;10.10;4.10;;;4.60;99.90;;;;;;5078561;28;20030;-91
2024/01/06 05:54:23;;;;;;;5.80;3.90;;;4.60;99.90;;;;;;5078523;28;20028;-90
2024/01/06 05:56:49;;;;;;;6.18;4.18;;;4.60;99.90;;;;;;5076548;28;20410;-88
2024/01/06 05:59:14;;;;;;;9.48;4.57;;;4.60;99.90;;;;;;5076506;28;20391;-92
2024/01/06 06:01:40;;;;;;;5.65;3.42;;;4.60;99.90;;;;;;5077093;28;20105;-92
2024/01/06 06:04:06;;;;;;;5.80;3.13;;;4.70;99.90;;;;;;5080825;28;20028;-90
2024/01/06 06:06:32;;;;;;;6.70;3.75;;;4.70;99.90;;;;;;5080849;28;20028;-91
2024/01/06 06:08:58;;;;;;;8.23;4.30;;;4.70;99.90;;;;;;5081174;28;20035;-91
2024/01/06 06:11:24;;;;;;;6.15;3.78;;;4.70;99.90;;;;;;5081076;28;20542;-91
2024/01/06 06:13:49;;;;;;;6.47;3.85;;;4.70;99.90;;;;;;5081116;28;20104;-91
2024/01/06 06:16:15;;;;;;;7.25;3.72;;;4.70;99.90;;;;;;5080560;28;20029;-92
2024/01/06 06:18:41;;;;;;;11.00;3.88;;;4.70;99.90;;;;;;5080589;28;20157;-88
2024/01/06 06:21:08;;;;;;;9.48;4.75;;;4.70;99.90;;;;;;5081354;28;20044;-90
2024/01/06 06:23:34;;;;;;;5.72;3.88;;;4.70;99.90;;;;;;5079953;28;20513;-92
2024/01/06 06:26:04;;;;;;;6.85;4.25;;;4.70;99.90;;;;;;5080986;28;20029;-93
2024/01/06 06:28:30;;;;;;;8.15;4.22;;;4.80;99.90;;;;;;5079529;28;20020;-91
2024/01/06 06:30:56;;;;;;;10.10;5.13;;;4.70;99.90;;;;;;5079436;28;20063;-90
2024/01/06 06:33:21;;;;;;;7.75;3.67;;;4.80;99.90;;;;;;5080686;28;20092;-91
2024/01/06 06:35:47;;;;;;;10.73;6.65;;;4.70;99.90;;;;;;5061615;28;20485;-90
2024/01/06 06:38:13;;;;;;;7.15;3.97;;;4.80;99.90;;;;;;5079803;28;20021;-90
2024/01/06 06:40:39;;;;;;;8.13;3.10;;;4.80;99.90;;;;;;5082674;28;20036;-92
2024/01/06 06:43:04;;;;;;;7.47;4.50;;;4.80;99.90;;;;;;5084791;28;20024;-92
2024/01/06 06:45:30;;;;;;;6.45;4.22;;;4.80;99.90;;;;;;5082288;28;20099;-90
2024/01/06 06:47:56;;;;;;;6.43;3.58;;;4.80;99.90;;;;;;5062905;28;20033;-91
2024/01/06 06:50:21;;;;;;;8.00;4.05;;;4.80;99.90;;;;;;5080783;28;20039;-92
2024/01/06 06:52:47;;;;;;;6.82;3.92;;;4.80;99.90;;;;;;5081820;28;20025;-91
2024/01/06 06:55:13;;;;;;;8.23;4.10;;;4.90;99.90;;;;;;5080139;28;20071;-90
2024/01/06 06:57:39;;;;;;;12.35;4.18;;;4.80;99.90;;;;;;5079192;28;20016;-92
2024/01/06 07:00:07;;;;;;;7.53;4.13;;;4.80;99.90;;;;;;5074379;28;20029;-91
2024/01/06 07:02:33;;;;;;;12.35;5.00;;;4.80;99.90;;;;;;5078800;28;20044;-93
2024/01/06 07:04:59;;;;;;;6.07;3.70;;;4.90;99.90;;;;;;5079629;28;20036;-92
2024/01/06 07:07:25;;;;;;;8.68;4.32;;;4.90;99.90;;;;;;5079871;28;20028;-92
2024/01/06 07:09:50;;;;;;;7.60;4.55;;;4.90;99.90;;;;;;5080413;28;20051;-92
2024/01/06 07:12:16;;;;;;;6.72;4.25;;;5.00;99.90;;;;;;5080304;28;20058;-89
2024/01/06 07:14:41;;;;;;;8.32;5.07;;;4.90;99.90;;;;;;5079597;28;20115;-91
2024/01/06 07:17:08;;;;;;;8.45;4.90;;;5.00;99.90;;;;;;5078391;28;20124;-93
2024/01/06 07:19:35;;;;;;;10.70;4.97;;;5.00;99.90;;;;;;5060822;28;20029;-90
2024/01/06 07:22:01;;;;;;;8.15;4.72;;;5.00;99.90;;;;;;5080281;28;20066;-88
2024/01/06 07:24:26;;;;;;;7.57;4.75;;;4.90;99.90;;;;;;5078196;28;20017;-91
2024/01/06 07:26:52;;;;;;;7.90;4.20;;;5.00;99.90;;;;;;5077321;28;20021;-91
2024/01/06 07:29:18;;;;;;;10.13;4.72;;;5.00;99.90;;;;;;5077747;28;20029;-89
2024/01/06 07:31:44;;;;;;;8.10;4.75;;;5.00;99.90;;;;;;5072605;28;20108;-93
2024/01/06 07:34:10;;;;;;;9.10;4.97;;;5.00;99.90;;;;;;5045519;28;20054;-93
2024/01/06 07:36:36;;;;;;;8.43;4.88;;;5.00;99.90;;;;;;5068852;28;20020;-93
2024/01/06 07:39:03;;;;;;;8.23;5.07;;;5.10;99.90;;;;;;5046422;28;20394;-89
2024/01/06 07:41:30;;;;;;;7.05;4.28;;;5.10;99.90;;;;;;5079306;28;20039;-91
2024/01/06 07:43:56;;;;;;;11.55;4.70;;;5.10;99.90;;;;;;5078847;28;20027;-94
2024/01/06 07:46:22;;;;;;;9.40;4.65;;;5.10;99.90;;;;;;5079180;28;20028;-91
2024/01/06 07:48:47;;;;;;;10.40;4.60;;;5.00;99.90;;;;;;5079347;28;20071;-92
2024/01/06 07:51:13;;;;;;;8.70;5.07;;;5.10;99.90;;;;;;5079423;28;20048;-91
2024/01/06 07:53:39;;;;;;;8.60;4.78;;;5.10;99.90;;;;;;5062216;28;20052;-92
2024/01/06 07:56:05;;;;;;;11.35;4.97;;;5.10;99.90;;;;;;5080026;28;20086;-91
2024/01/06 07:58:32;;;;;;;6.57;4.72;;;5.00;99.90;;;;;;5072460;28;20017;-91
2024/01/06 08:00:58;;;;;;;7.28;4.70;;;5.10;99.90;;;;;;5061516;28;20120;-92
2024/01/06 08:03:24;;;;;;;8.90;3.95;;;5.10;99.90;;;;;;5080968;28;20059;-92
2024/01/06 08:05:50;;;;;;;7.40;4.88;;;5.10;99.90;;;;;;5080232;28;20032;-92
2024/01/06 08:08:16;;;;;;;7.35;5.25;;;5.10;99.90;;;;;;5079111;28;20056;-92
2024/01/06 08:10:42;;;;;;;7.93;4.78;;;5.10;99.90;;;;;;5079365;28;20028;-90
2024/01/06 08:13:08;;;;;;;9.15;4.75;;;5.10;99.90;;;;;;5033690;28;20036;-92
2024/01/06 08:15:34;;;;;;;6.95;4.68;;;5.10;99.90;;;;;;5053979;28;20030;-90
2024/01/06 08:18:00;;;;;;;9.93;5.30;;;5.10;99.90;;;;;;5081879;28;20047;-93
2024/01/06 08:20:25;;;;;;;7.47;5.38;;;5.10;99.90;;;;;;5082480;28;20379;-89
2024/01/06 08:22:51;;;;;;;12.45;5.88;;;5.10;99.90;;;;;;5081331;28;20132;-93
2024/01/06 08:25:17;;;;;;;10.85;5.53;;;5.10;99.90;;;;;;5060442;28;20036;-93
2024/01/06 08:27:43;;;;;;;12.15;5.85;;;5.10;99.90;;;;;;5089331;28;20047;-92
2024/01/06 08:30:09;;;;;;;8.65;5.28;;;5.10;99.90;;;;;;5080496;28;20036;-92
2024/01/06 08:32:35;;;;;;;8.27;5.20;;;5.10;99.90;;;;;;5081343;28;20024;-91
2024/01/06 08:35:01;;;;;;;12.40;5.68;;;5.10;99.90;;;;;;5062800;28;20048;-93
2024/01/06 08:37:26;;;;;;;10.30;5.88;;;5.00;99.90;;;;;;5084949;28;20108;-93
2024/01/06 08:39:52;;;;;;;11.13;6.80;;;5.10;99.90;;;;;;5081642;28;20157;-92
2024/01/06 08:42:18;;;;;;;11.35;5.25;;;5.00;99.90;;;;;;5091106;28;20043;-91
2024/01/06 08:44:44;;;;;;;10.73;5.85;;;5.10;99.90;;;;;;5060661;28;20037;-91
2024/01/06 08:47:10;;;;;;;11.05;6.18;;;5.10;99.90;;;;;;5085149;28;20410;-93
2024/01/06 08:49:36;;;;;;;10.65;6.20;;;5.10;99.90;;;;;;5084685;28;20028;-91
2024/01/06 08:52:01;;;;;;;10.52;4.93;;;5.10;99.90;;;;;;5059280;28;20028;-90
2024/01/06 08:54:27;;;;;;;14.35;7.00;;;5.10;99.90;;;;;;5084596;28;20037;-90
2024/01/06 08:56:52;;;;;;;8.80;5.97;;;5.00;99.90;;;;;;5082142;28;20036;-95
2024/01/06 08:59:20;;;;;;;11.77;6.00;;;5.00;99.90;;;;;;5083107;28;20032;-89
2024/01/06 09:01:45;;;;;;;10.82;6.45;;;5.00;99.90;;;;;;5087264;28;20020;-91
2024/01/06 09:04:12;;;;;;;11.85;5.97;;;5.00;99.90;;;;;;5083877;28;20535;-91
2024/01/06 09:06:38;;;;;;;14.73;6.95;;;5.00;99.90;;;;;;5077498;28;20162;-91
2024/01/06 09:09:04;;;;;;;12.88;7.00;;;5.00;99.90;;;;;;5084735;28;20048;-91
2024/01/06 09:11:29;;;;;;;15.93;6.53;;;5.00;99.90;;;;;;5086245;28;20032;-91
2024/01/06 09:13:55;;;;;;;12.30;6.15;;;5.00;99.90;;;;;;5081737;28;20058;-92
2024/01/06 09:16:20;;;;;;;10.32;7.05;;;5.00;99.90;;;;;;5063284;28;20035;-90
2024/01/06 09:18:46;;;;;;;16.33;9.70;;;5.10;99.90;;;;;;5061182;28;20037;-93
2024/01/06 09:21:15;;;;;;;12.43;8.00;;;5.10;99.90;;;;;;5076210;28;20147;-90
2024/01/06 09:23:41;;;;;;;13.00;6.60;;;5.10;99.90;;;;;;5077741;28;20024;-92
2024/01/06 09:26:07;;;;;;;14.35;8.05;;;5.00;99.90;;;;;;5074878;28;20021;-95
2024/01/06 09:28:32;;;;;;;10.23;6.80;;;5.00;99.90;;;;;;5085686;28;20115;-92
2024/01/06 09:30:58;;;;;;;14.32;9.10;;;5.00;99.90;;;;;;5082374;28;20082;-95
2024/01/06 09:33:23;;;;;;;12.52;6.90;;;5.00;99.90;;;;;;5062779;28;20099;-90
2024/01/06 09:35:52;;;;;;;11.00;6.72;;;5.00;99.90;;;;;;5068097;28;20086;-94
2024/01/06 09:38:27;;;;;;;13.00;7.93;;;5.00;99.90;;;;;;5065827;28;20437;-93
2024/01/06 09:40:53;;;;;;;13.07;7.05;;;5.00;99.90;;;;;;5076083;28;20030;-92
2024/01/06 09:43:22;;;;;;;11.13;7.35;;;5.00;99.90;;;;;;5076723;28;20028;-91
2024/01/06 09:45:58;;;;;;;11.82;6.88;;;5.10;99.90;;;;;;5076735;28;20029;-91
2024/01/06 09:48:29;;;;;;;12.38;8.52;;;5.10;99.90;;;;;;5074590;28;20105;-90
2024/01/06 09:50:56;;;;;;;13.38;7.80;;;5.20;99.90;;;;;;5059246;28;20036;-91
2024/01/06 09:53:26;;;;;;;11.82;7.32;;;5.20;99.90;;;;;;5077289;28;20245;-90
2024/01/06 09:55:52;;;;;;;16.58;7.43;;;5.20;99.90;;;;;;5059338;28;20021;-88
2024/01/06 09:58:18;;;;;;;15.10;6.93;;;5.20;99.90;;;;;;5077075;28;20040;-92
2024/01/06 10:00:43;;;;;;;13.45;7.75;;;5.20;99.90;;;;;;5078366;28;20024;-91
2024/01/06 10:03:09;;;;;;;12.68;7.55;;;5.30;99.90;;;;;;5079852;28;20107;-92
2024/01/06 10:05:36;;;;;;;11.73;7.63;;;5.30;99.90;;;;;;5078300;28;20100;-92
2024/01/06 10:08:04;;;;;;;11.45;7.53;;;5.20;99.90;;;;;;5072809;28;20426;-91
2024/01/06 10:10:29;;;;;;;13.65;8.73;;;5.30;99.90;;;;;;5061417;28;20040;-91
2024/01/06 10:12:55;;;;;;;15.38;7.93;;;5.30;99.90;;;;;;5077988;28;20490;-93
2024/01/06 10:15:21;;;;;;;10.98;7.95;;;5.20;99.90;;;;;;5081692;28;20039;-90
2024/01/06 10:17:46;;;;;;;11.40;7.28;;;5.30;99.90;;;;;;5085220;28;20040;-91
2024/01/06 10:20:13;;;;;;;14.00;7.78;;;5.30;99.90;;;;;;5059264;28;20024;-91
2024/01/06 10:22:41;;;;;;;16.33;7.32;;;5.30;99.90;;;;;;5088428;28;20047;-92
2024/01/06 10:25:09;;;;;;;11.45;7.47;;;5.30;99.90;;;;;;5079783;28;20029;-93
2024/01/06 10:27:36;;;;;;;11.48;6.45;;;5.30;99.90;;;;;;5081424;28;20112;-91
2024/01/06 10:30:02;;;;;;;14.10;7.15;;;5.30;99.90;;;;;;5059012;28;20029;-94
2024/01/06 10:32:31;;;;;;;10.13;7.03;;;5.40;99.90;;;;;;5090722;28;20024;-90
2024/01/06 10:35:03;;;;;;;10.38;6.85;;;5.40;99.90;;;;;;5084157;28;20048;-90
2024/01/06 10:37:29;;;;;;;12.05;7.40;;;5.40;99.90;;;;;;5077654;28;20074;-92
2024/01/06 10:40:18;;;;;;;15.13;8.68;;;5.30;99.90;;;;;;5068226;28;20021;-92
2024/01/06 10:42:45;;;;;;;11.85;7.07;;;5.30;99.90;;;;;;5052347;28;20078;-92
2024/01/06 10:45:14;;;;;;;13.95;8.07;;;5.40;99.90;;;;;;5060032;28;20028;-93
2024/01/06 10:47:44;;;;;;;10.45;7.47;;;5.40;99.90;;;;;;5086967;28;20043;-91
2024/01/06 10:50:10;;;;;;;12.45;6.38;;;5.40;99.90;;;;;;5081547;28;20035;-92
2024/01/06 10:52:38;;;;;;;11.93;6.82;;;5.40;99.90;;;;;;5082460;28;20028;-93
2024/01/06 10:55:05;;;;;;;12.02;7.88;;;5.40;99.90;;;;;;5072599;28;20418;-93
2024/01/06 10:57:31;;;;;;;13.02;7.20;;;5.40;99.90;;;;;;5085616;28;20024;-92
2024/01/06 10:59:59;;;;;;;10.68;7.18;;;5.50;99.90;;;;;;5081724;28;20031;-92
2024/01/06 11:02:26;;;;;;;12.95;8.18;;;5.50;99.90;;;;;;5090674;28;20013;-93
2024/01/06 11:04:52;;;;;;;13.95;5.88;;;5.50;99.90;;;;;;5084464;28;20024;-93
2024/01/06 11:07:23;;;;;;;11.52;6.88;;;5.50;99.90;;;;;;5089826;28;20160;-93
2024/01/06 11:10:05;;;;;;;11.05;6.28;;;5.50;99.90;;;;;;5079929;28;20028;-91
2024/01/06 11:12:31;;;;;;;10.82;6.90;;;5.50;99.90;;;;;;5080918;28;20495;-92
2024/01/06 11:14:57;;;;;;;9.40;6.38;;;5.40;99.90;;;;;;5064218;28;20115;-93
2024/01/06 11:17:53;;;;;;;9.85;6.18;;;5.50;99.90;;;;;;5072946;28;20005;-96
2024/01/06 11:20:20;;;;;;;9.38;6.03;;;5.50;99.90;;;;;;5066921;28;20036;-90
2024/01/06 11:22:46;;;;;;;13.07;6.68;;;5.60;99.90;;;;;;5078137;28;20513;-91
2024/01/06 11:25:16;;;;;;;10.27;6.13;;;5.60;99.90;;;;;;5075710;28;20039;-92
2024/01/06 11:27:45;;;;;;;9.38;6.57;;;5.60;99.90;;;;;;5086184;28;20032;-95
2024/01/06 11:30:26;;;;;;;8.88;6.18;;;5.60;99.90;;;;;;5066660;28;20032;-93
2024/01/06 11:32:58;;;;;;;10.43;6.47;;;5.60;99.90;;;;;;5083420;28;20025;-93
2024/01/06 11:35:29;;;;;;;9.82;6.30;;;5.60;99.90;;;;;;5080189;28;20040;-93
2024/01/06 11:37:58;;;;;;;8.02;5.15;;;5.60;99.90;;;;;;5086540;28;20024;-92
2024/01/06 11:40:23;;;;;;;11.73;6.25;;;5.60;99.90;;;;;;5076295;28;20072;-93
2024/01/06 11:43:07;;;;;;;9.75;6.60;;;5.60;99.90;;;;;;5087009;28;20021;-93
2024/01/06 11:45:41;;;;;;;7.80;5.53;;;5.50;99.90;;;;;;5064877;28;20054;-92
2024/01/06 11:48:09;;;;;;;10.48;6.47;;;5.60;99.90;;;;;;5078998;28;20128;-92
2024/01/06 11:50:39;;;;;;;12.05;7.20;;;5.50;99.90;;;;;;5078490;28;20040;-93
2024/01/06 11:53:10;;;;;;;11.57;6.80;;;5.50;99.90;;;;;;5061267;28;20036;-95
2024/01/06 11:55:39;;;;;;;11.00;6.45;;;5.60;99.90;;;;;;5060850;28;20054;-93
2024/01/06 11:58:05;;;;;;;9.38;6.13;;;5.60;99.90;;;;;;5064312;28;20031;-93
2024/01/06 12:00:36;;;;;;;10.77;6.07;;;5.60;99.90;;;;;;5078147;28;20421;-92
2024/01/06 12:03:02;;;;;;;9.82;6.15;;;5.70;99.90;;;;;;5079335;28;20008;-93
2024/01/06 12:05:28;;;;;;;10.73;8.88;;;5.60;99.90;;;;;;5078778;28;20847;-94
2024/01/06 12:07:59;;;;;;;9.40;6.38;;;5.70;99.90;;;;;;5079127;28;20029;-93
2024/01/06 12:10:25;;;;;;;10.80;7.90;;;5.60;99.90;;;;;;5080942;28;20079;-90
2024/01/06 12:13:12;;;;;;;11.25;6.57;;;5.60;99.90;;;;;;5077141;28;20063;-93
2024/01/06 12:15:39;;;;;;;11.00;6.25;;;5.60;99.90;;;;;;5077874;28;20028;-92
2024/01/06 12:18:05;;;;;;;10.68;7.65;;;5.60;99.90;;;;;;5075225;28;20456;-91
2024/01/06 12:20:32;;;;;;;10.55;7.38;;;5.60;99.90;;;;;;5066923;28;20055;-94
2024/01/06 12:22:58;;;;;;;11.15;6.20;;;5.60;99.90;;;;;;5066770;28;20092;-93
2024/01/06 12:25:25;;;;;;;10.13;7.15;;;5.60;99.90;;;;;;5068350;28;20445;-93
2024/01/06 12:27:53;;;;;;;9.27;6.68;;;5.60;99.90;;;;;;5067912;28;20032;-93
2024/01/06 12:30:21;;;;;;;10.68;7.13;;;5.60;99.90;;;;;;5048365;28;20028;-94
2024/01/06 12:32:51;;;;;;;11.05;6.65;;;5.60;99.90;;;;;;5067469;28;20061;-92
2024/01/06 12:35:20;;;;;;;13.63;6.95;;;5.50;99.90;;;;;;5067174;28;20112;-93
2024/01/06 12:37:46;;;;;;;13.23;7.10;;;5.50;99.90;;;;;;5060393;28;20024;-93
2024/01/06 12:40:16;;;;;;;11.02;6.78;;;5.60;99.90;;;;;;5067018;28;20544;-93
2024/01/06 12:42:43;;;;;;;11.27;7.57;;;5.60;99.90;;;;;;5068150;28;20017;-91
2024/01/06 12:45:10;;;;;;;13.38;7.50;;;5.60;99.90;;;;;;5065145;28;20090;-94
2024/01/06 12:47:35;;;;;;;10.48;7.30;;;5.70;99.90;;;;;;5062480;28;20036;-94
2024/01/06 12:50:04;;;;;;;9.82;6.93;;;5.70;99.90;;;;;;5067838;28;20080;-92